createdAt,value
2023-03-11T00:02:02.300Z,4.80
2023-03-11T00:05:04.427Z,4.68
2023-03-11T00:08:32.672Z,4.15
2023-03-11T00:11:56.405Z,3.40
2023-03-11T00:15:15.356Z,4.20
2023-03-11T00:18:39.393Z,5.75
2023-03-11T00:24:51.922Z,4.60
2023-03-11T00:28:03.738Z,4.65
2023-03-11T00:30:59.273Z,6.47
2023-03-11T00:34:02.192Z,5.62
2023-03-11T00:36:43.346Z,6.87
2023-03-11T00:39:28.689Z,6.67
2023-03-11T00:42:27.516Z,8.77
2023-03-11T00:45:09.778Z,7.32
2023-03-11T00:47:42.860Z,5.95
2023-03-11T00:50:15.792Z,6.65
2023-03-11T00:52:48.590Z,5.70
2023-03-11T00:55:21.680Z,7.18
2023-03-11T00:57:55.710Z,8.38
2023-03-11T01:00:26.196Z,8.57
2023-03-11T01:02:59.804Z,7.45
2023-03-11T01:05:30.814Z,7.22
2023-03-11T01:10:28.995Z,6.45
2023-03-11T01:12:57.188Z,8.40
2023-03-11T01:15:32.443Z,7.35
2023-03-11T01:18:00.904Z,11.25
2023-03-11T01:20:29.709Z,9.98
2023-03-11T01:22:59.675Z,8.32
2023-03-11T01:25:29.692Z,9.20
2023-03-11T01:27:59.779Z,9.88
2023-03-11T01:30:29.630Z,8.07
2023-03-11T01:32:58.126Z,8.70
2023-03-11T01:35:29.247Z,9.73
2023-03-11T01:37:57.966Z,11.32
2023-03-11T01:40:31.958Z,11.00
2023-03-11T01:43:01.277Z,12.25
2023-03-11T01:45:41.805Z,9.00
2023-03-11T01:48:12.308Z,11.05
2023-03-11T01:54:21.315Z,10.65
2023-03-11T01:56:51.103Z,10.20
2023-03-11T01:59:42.471Z,11.20
2023-03-11T02:02:53.641Z,12.05
2023-03-11T02:05:24.149Z,9.13
2023-03-11T02:12:34.364Z,9.63
2023-03-11T02:15:04.365Z,9.60
2023-03-11T02:17:34.129Z,10.55
2023-03-11T02:20:02.128Z,10.50
2023-03-11T02:22:33.556Z,18.25
2023-03-11T02:25:24.526Z,10.75
2023-03-11T02:27:54.566Z,11.05
2023-03-11T02:30:24.294Z,11.10
2023-03-11T02:32:52.615Z,11.40
2023-03-11T02:35:21.212Z,9.65
2023-03-11T02:37:53.383Z,11.68
2023-03-11T02:40:24.542Z,10.80
2023-03-11T02:43:00.713Z,10.68
2023-03-11T02:45:30.883Z,11.25
2023-03-11T02:48:00.731Z,11.12
2023-03-11T02:50:31.524Z,10.15
2023-03-11T02:52:59.793Z,12.35
2023-03-11T02:55:27.781Z,11.18
2023-03-11T02:57:55.761Z,11.02
2023-03-11T03:00:25.099Z,9.85
2023-03-11T03:02:54.181Z,11.12
2023-03-11T03:05:23.070Z,9.43
2023-03-11T03:07:51.718Z,10.90
2023-03-11T03:10:21.448Z,9.15
2023-03-11T03:12:49.995Z,10.65
2023-03-11T03:15:18.413Z,8.48
2023-03-11T03:17:46.709Z,8.70
2023-03-11T03:20:15.004Z,8.20
2023-03-11T03:22:44.566Z,10.20
2023-03-11T03:25:12.967Z,8.00
2023-03-11T03:27:41.501Z,6.78
2023-03-11T03:30:11.339Z,6.80
2023-03-11T03:32:40.357Z,6.28
2023-03-11T03:35:09.679Z,6.72
2023-03-11T03:37:38.868Z,7.43
2023-03-11T03:40:07.998Z,5.22
2023-03-11T03:42:37.121Z,5.12
2023-03-11T03:45:08.506Z,5.05
2023-03-11T03:47:37.343Z,5.60
2023-03-11T03:50:11.336Z,6.50
2023-03-11T03:52:40.338Z,4.90
2023-03-11T03:55:09.621Z,5.57
2023-03-11T03:57:38.098Z,5.78
2023-03-11T04:00:10.877Z,4.12
2023-03-11T04:02:42.021Z,4.75
2023-03-11T04:05:11.131Z,3.30
2023-03-11T04:07:41.070Z,4.07
2023-03-11T04:10:10.285Z,5.70
2023-03-11T04:12:38.929Z,3.65
2023-03-11T04:15:07.858Z,5.53
2023-03-11T04:17:36.507Z,3.92
2023-03-11T04:20:08.505Z,3.90
2023-03-11T04:22:37.234Z,4.37
2023-03-11T04:25:06.472Z,3.80
2023-03-11T04:27:34.612Z,3.22
2023-03-11T04:30:03.164Z,3.87
2023-03-11T04:32:31.658Z,4.03
2023-03-11T04:34:59.593Z,6.43
2023-03-11T04:37:29.279Z,3.40
2023-03-11T04:39:58.174Z,3.50
2023-03-11T04:42:27.094Z,3.97
2023-03-11T04:44:55.240Z,3.35
2023-03-11T04:47:23.905Z,3.70
2023-03-11T04:49:53.117Z,4.05
2023-03-11T04:52:20.986Z,4.40
2023-03-11T04:54:49.187Z,4.65
2023-03-11T04:57:17.148Z,4.68
2023-03-11T04:59:45.334Z,3.60
2023-03-11T05:02:14.162Z,3.58
2023-03-11T05:04:42.787Z,4.25
2023-03-11T05:07:10.634Z,3.72
2023-03-11T05:09:39.072Z,4.12
2023-03-11T05:12:07.215Z,2.50
2023-03-11T05:14:35.624Z,3.30
2023-03-11T05:17:04.128Z,2.80
2023-03-11T05:19:34.196Z,3.80
2023-03-11T05:22:04.355Z,3.28
2023-03-11T05:24:32.584Z,2.80
2023-03-11T05:27:02.166Z,3.72
2023-03-11T05:29:30.775Z,3.22
2023-03-11T05:31:59.564Z,2.30
2023-03-11T05:34:27.528Z,4.03
2023-03-11T05:36:55.419Z,3.28
2023-03-11T05:39:23.752Z,2.60
2023-03-11T05:41:52.312Z,2.40
2023-03-11T05:44:20.277Z,2.75
2023-03-11T05:46:48.447Z,2.75
2023-03-11T05:49:16.655Z,2.22
2023-03-11T05:51:44.607Z,2.20
2023-03-11T05:54:15.363Z,2.80
2023-03-11T05:56:45.647Z,2.37
2023-03-11T05:59:16.549Z,2.12
2023-03-11T06:01:45.462Z,2.70
2023-03-11T06:04:13.999Z,2.20
2023-03-11T06:06:42.115Z,2.20
2023-03-11T06:09:13.462Z,3.35
2023-03-11T06:11:42.527Z,2.97
2023-03-11T06:14:14.961Z,2.12
2023-03-11T06:16:43.548Z,1.98
2023-03-11T06:19:11.742Z,2.03
2023-03-11T06:21:40.147Z,2.12
2023-03-11T06:24:08.702Z,1.77
2023-03-11T06:26:37.691Z,1.40
2023-03-11T06:29:07.707Z,1.33
2023-03-11T06:31:37.309Z,1.17
2023-03-11T06:34:06.538Z,1.23
2023-03-11T06:36:34.572Z,0.80
2023-03-11T06:39:03.962Z,1.00
2023-03-11T06:41:34.706Z,2.65
2023-03-11T06:44:04.330Z,1.00
2023-03-11T06:46:32.305Z,1.37
2023-03-11T06:49:00.554Z,0.80
2023-03-11T06:51:29.570Z,0.82
2023-03-11T06:53:57.683Z,0.80
2023-03-11T06:56:25.993Z,0.70
2023-03-11T06:58:55.346Z,1.02
2023-03-11T07:01:25.573Z,1.05
2023-03-11T07:03:54.293Z,0.70
2023-03-11T07:06:27.205Z,0.62
2023-03-11T07:08:57.070Z,1.65
2023-03-11T07:11:26.859Z,1.10
2023-03-11T07:13:55.984Z,0.93
2023-03-11T07:16:26.637Z,0.60
2023-03-11T07:18:59.135Z,2.53
2023-03-11T07:21:28.107Z,2.05
2023-03-11T07:23:58.543Z,0.77
2023-03-11T07:26:27.955Z,0.70
2023-03-11T07:28:57.404Z,2.67
2023-03-11T07:31:30.980Z,0.60
2023-03-11T07:34:01.704Z,1.23
2023-03-11T07:36:30.620Z,0.70
2023-03-11T07:39:04.806Z,6.15
2023-03-11T07:41:34.963Z,0.60
2023-03-11T07:44:04.094Z,0.80
2023-03-11T07:46:32.913Z,1.00
2023-03-11T07:49:02.442Z,1.30
2023-03-11T07:51:33.644Z,1.10
2023-03-11T07:54:03.001Z,1.52
2023-03-11T07:56:35.457Z,0.70
2023-03-11T07:59:04.976Z,2.83
2023-03-11T08:01:36.644Z,1.30
2023-03-11T08:04:07.162Z,2.08
2023-03-11T08:06:36.885Z,2.30
2023-03-11T08:09:09.381Z,1.00
2023-03-11T08:11:37.513Z,1.10
2023-03-11T08:14:06.072Z,0.98
2023-03-11T08:16:34.234Z,3.85
2023-03-11T08:19:02.590Z,2.70
2023-03-11T08:21:32.450Z,2.97
2023-03-11T08:24:02.709Z,4.05
2023-03-11T08:26:32.173Z,5.15
2023-03-11T08:29:00.152Z,1.42
2023-03-11T08:31:31.001Z,4.55
2023-03-11T08:36:29.225Z,7.32
2023-03-11T08:38:57.238Z,1.15
2023-03-11T08:41:26.231Z,1.45
2023-03-11T08:43:54.538Z,1.30
2023-03-11T08:46:34.899Z,1.52
2023-03-11T08:49:04.383Z,1.12
2023-03-11T08:51:34.093Z,1.30
2023-03-11T08:54:03.230Z,3.60
2023-03-11T08:56:31.467Z,1.08
2023-03-11T08:58:59.943Z,1.77
2023-03-11T09:01:29.670Z,2.62
2023-03-11T09:03:58.210Z,0.90
2023-03-11T09:06:26.177Z,1.42
2023-03-11T09:08:54.310Z,1.33
2023-03-11T09:11:22.941Z,1.77
2023-03-11T09:13:51.614Z,1.35
2023-03-11T09:16:22.677Z,2.92
2023-03-11T09:18:51.171Z,1.15
2023-03-11T09:21:19.986Z,0.90
2023-03-11T09:23:48.291Z,9.45
2023-03-11T09:26:16.491Z,2.80
2023-03-11T09:28:49.012Z,1.48
2023-03-11T09:31:18.709Z,1.52
2023-03-11T09:33:47.148Z,1.37
2023-03-11T09:36:17.325Z,4.20
2023-03-11T09:38:46.383Z,2.03
2023-03-11T09:41:17.096Z,2.00
2023-03-11T09:43:54.049Z,3.00
2023-03-11T09:46:33.913Z,1.52
2023-03-11T09:49:33.937Z,1.00
2023-03-11T09:52:12.446Z,0.98
2023-03-11T09:54:45.453Z,1.40
2023-03-11T09:57:20.064Z,1.27
2023-03-11T09:59:49.624Z,1.12
2023-03-11T10:02:26.801Z,7.53
2023-03-11T10:05:03.674Z,1.62
2023-03-11T10:07:41.770Z,1.33
2023-03-11T10:10:17.772Z,4.40
2023-03-11T10:13:03.698Z,3.33
2023-03-11T10:15:56.667Z,2.30
2023-03-11T10:18:38.489Z,4.97
2023-03-11T10:21:12.096Z,0.80
2023-03-11T10:23:42.453Z,2.22
2023-03-11T10:26:13.544Z,1.85
2023-03-11T10:28:50.220Z,6.12
2023-03-11T10:31:24.093Z,3.85
2023-03-11T10:34:18.407Z,4.30
2023-03-11T10:37:03.896Z,1.30
2023-03-11T10:39:33.368Z,1.73
2023-03-11T10:42:05.241Z,1.95
2023-03-11T10:44:36.133Z,4.12
2023-03-11T10:47:05.633Z,2.35
2023-03-11T10:49:33.973Z,1.30
2023-03-11T10:52:04.170Z,0.90
2023-03-11T10:54:38.605Z,1.25
2023-03-11T10:57:21.783Z,1.20
2023-03-11T11:00:00.497Z,0.90
2023-03-11T11:02:31.789Z,4.70
2023-03-11T11:05:18.847Z,3.90
2023-03-11T11:07:48.807Z,0.90
2023-03-11T11:13:02.762Z,3.35
2023-03-11T11:15:40.545Z,3.10
2023-03-11T11:18:29.312Z,1.55
2023-03-11T11:21:16.062Z,1.75
2023-03-11T11:23:48.813Z,1.70
2023-03-11T11:26:23.438Z,0.95
2023-03-11T11:29:14.406Z,1.48
2023-03-11T11:34:33.201Z,3.85
2023-03-11T11:37:05.397Z,2.40
2023-03-11T11:39:59.679Z,1.02
2023-03-11T11:42:31.495Z,3.47
2023-03-11T11:45:39.320Z,3.70
2023-03-11T11:48:25.603Z,1.23
2023-03-11T11:51:00.326Z,10.43
2023-03-11T11:53:42.340Z,3.95
2023-03-11T11:56:11.413Z,3.17
2023-03-11T11:58:41.654Z,8.00
2023-03-11T12:01:30.636Z,2.58
2023-03-11T12:04:20.781Z,2.97
2023-03-11T12:07:16.662Z,1.12
2023-03-11T12:09:58.099Z,1.65
2023-03-11T12:15:16.754Z,3.20
2023-03-11T12:17:51.364Z,4.10
2023-03-11T12:20:36.099Z,0.90
2023-03-11T12:23:20.824Z,0.93
2023-03-11T12:26:20.012Z,4.22
2023-03-11T12:28:54.016Z,0.90
2023-03-11T12:31:28.665Z,4.43
2023-03-11T12:34:04.658Z,2.15
2023-03-11T12:36:32.940Z,4.03
2023-03-11T12:39:05.508Z,6.35
2023-03-11T12:41:39.889Z,5.10
2023-03-11T12:44:29.434Z,1.73
2023-03-11T12:46:59.385Z,4.05
2023-03-11T12:49:30.763Z,4.57
2023-03-11T12:52:04.858Z,6.12
2023-03-11T12:54:36.806Z,1.55
2023-03-11T12:57:20.895Z,2.00
2023-03-11T13:00:26.730Z,3.20
2023-03-11T13:03:02.394Z,1.48
2023-03-11T13:05:48.257Z,2.47
2023-03-11T13:08:23.560Z,6.07
2023-03-11T13:10:53.847Z,1.05
2023-03-11T13:13:25.519Z,4.40
2023-03-11T13:15:53.859Z,7.32
2023-03-11T13:18:33.203Z,4.50
2023-03-11T13:21:02.285Z,13.55
2023-03-11T13:23:40.626Z,9.73
2023-03-11T13:26:31.758Z,8.13
2023-03-11T13:29:16.306Z,6.60
2023-03-11T13:31:53.115Z,9.15
2023-03-11T13:34:24.319Z,11.05
2023-03-11T13:37:11.764Z,6.78
2023-03-11T13:39:55.455Z,12.35
2023-03-11T13:42:35.173Z,10.57
2023-03-11T13:45:07.410Z,6.62
2023-03-11T13:47:37.004Z,8.60
2023-03-11T13:50:20.689Z,5.00
2023-03-11T13:52:53.774Z,4.95
2023-03-11T13:55:30.976Z,7.10
2023-03-11T13:57:58.972Z,3.85
2023-03-11T14:00:30.706Z,2.50
2023-03-11T14:03:02.793Z,1.92
2023-03-11T14:05:33.791Z,3.15
2023-03-11T14:08:24.604Z,2.92
2023-03-11T14:11:04.890Z,5.10
2023-03-11T14:13:41.032Z,9.07
2023-03-11T14:16:21.328Z,10.82
2023-03-11T14:19:15.523Z,7.37
2023-03-11T14:21:45.508Z,5.65
2023-03-11T14:24:19.841Z,8.35
2023-03-11T14:26:49.648Z,6.15
2023-03-11T14:29:20.204Z,3.20
2023-03-11T14:31:48.368Z,5.00
2023-03-11T14:34:28.895Z,4.55
2023-03-11T14:37:01.136Z,1.58
2023-03-11T14:39:31.898Z,1.42
2023-03-11T14:44:34.982Z,1.50
2023-03-11T14:47:16.483Z,1.58
2023-03-11T14:49:46.584Z,2.08
2023-03-11T14:52:38.700Z,1.65
2023-03-11T14:55:14.326Z,1.12
2023-03-11T14:57:53.617Z,1.48
2023-03-11T15:00:28.225Z,1.35
2023-03-11T15:02:59.936Z,1.27
2023-03-11T15:05:38.336Z,1.10
2023-03-11T15:08:07.587Z,0.95
2023-03-11T15:10:37.164Z,2.12
2023-03-11T15:13:13.775Z,1.85
2023-03-11T15:15:42.170Z,3.05
2023-03-11T15:18:42.130Z,0.77
2023-03-11T15:21:16.107Z,1.00
2023-03-11T15:23:49.997Z,3.53
2023-03-11T15:26:25.649Z,1.33
2023-03-11T15:28:58.534Z,1.95
2023-03-11T15:31:33.012Z,0.90
2023-03-11T15:34:21.120Z,1.27
2023-03-11T15:36:49.480Z,2.12
2023-03-11T15:39:21.471Z,2.35
2023-03-11T15:42:02.073Z,3.03
2023-03-11T15:44:36.422Z,1.10
2023-03-11T15:47:04.662Z,1.52
2023-03-11T15:49:34.017Z,0.90
2023-03-11T15:52:02.555Z,0.90
2023-03-11T15:54:30.859Z,1.20
2023-03-11T15:57:01.356Z,0.98
2023-03-11T15:59:30.360Z,0.95
2023-03-11T16:01:59.622Z,1.25
2023-03-11T16:04:28.108Z,1.10
2023-03-11T16:07:07.405Z,1.10
2023-03-11T16:09:37.275Z,0.98
2023-03-11T16:12:23.620Z,0.85
2023-03-11T16:14:52.164Z,0.70
2023-03-11T16:17:20.798Z,0.80
2023-03-11T16:19:49.755Z,0.82
2023-03-11T16:22:21.410Z,1.67
2023-03-11T16:24:52.530Z,0.90
2023-03-11T16:29:48.737Z,1.45
2023-03-11T16:32:16.712Z,1.15
2023-03-11T16:34:45.311Z,0.95
2023-03-11T16:37:20.823Z,1.30
2023-03-11T16:39:49.099Z,0.80
2023-03-11T16:42:24.096Z,1.10
2023-03-11T16:44:52.779Z,0.77
2023-03-11T16:47:20.666Z,0.95
2023-03-11T16:49:53.422Z,1.12
2023-03-11T16:52:23.127Z,1.27
2023-03-11T16:54:51.116Z,1.08
2023-03-11T16:57:19.085Z,0.93
2023-03-11T16:59:48.288Z,1.10
2023-03-11T17:02:16.362Z,1.00
2023-03-11T17:04:44.648Z,0.88
2023-03-11T17:07:13.159Z,0.93
2023-03-11T17:09:42.795Z,0.75
2023-03-11T17:12:13.534Z,0.98
2023-03-11T17:14:42.350Z,0.90
2023-03-11T17:17:10.366Z,0.90
2023-03-11T17:19:38.341Z,1.00
2023-03-11T17:22:06.560Z,1.23
2023-03-11T17:24:34.523Z,0.98
2023-03-11T17:27:02.905Z,0.88
2023-03-11T17:29:31.288Z,1.20
2023-03-11T17:31:59.597Z,1.62
2023-03-11T17:34:28.353Z,1.48
2023-03-11T17:36:57.807Z,0.80
2023-03-11T17:39:26.045Z,1.05
2023-03-11T17:41:55.331Z,1.15
2023-03-11T17:44:23.754Z,0.85
2023-03-11T17:46:51.623Z,0.70
2023-03-11T17:49:20.010Z,1.10
2023-03-11T17:51:49.502Z,1.10
2023-03-11T17:54:17.546Z,0.80
2023-03-11T17:56:45.784Z,1.25
2023-03-11T17:59:15.304Z,1.05
2023-03-11T18:01:44.533Z,1.00
2023-03-11T18:04:13.061Z,1.10
2023-03-11T18:06:41.554Z,1.00
2023-03-11T18:09:10.101Z,1.17
2023-03-11T18:11:38.813Z,1.55
2023-03-11T18:14:07.563Z,2.25
2023-03-11T18:16:35.703Z,2.30
2023-03-11T18:19:04.108Z,1.30
2023-03-11T18:21:32.496Z,1.10
2023-03-11T18:24:00.931Z,1.75
2023-03-11T18:26:30.889Z,1.12
2023-03-11T18:29:00.289Z,1.08
2023-03-11T18:31:30.526Z,1.48
2023-03-11T18:34:01.867Z,0.90
2023-03-11T18:36:37.558Z,1.17
2023-03-11T18:39:06.748Z,1.45
2023-03-11T18:41:35.573Z,1.20
2023-03-11T18:44:04.502Z,2.15
2023-03-11T18:46:33.691Z,1.17
2023-03-11T18:49:03.850Z,1.40
2023-03-11T18:51:33.101Z,1.33
2023-03-11T18:54:01.735Z,1.55
2023-03-11T18:56:33.515Z,1.70
2023-03-11T18:59:02.452Z,1.87
2023-03-11T19:01:31.172Z,1.92
2023-03-11T19:04:00.416Z,1.60
2023-03-11T19:06:29.621Z,1.50
2023-03-11T19:11:28.408Z,1.40
2023-03-11T19:13:56.547Z,2.22
2023-03-11T19:16:26.348Z,1.50
2023-03-11T19:18:56.203Z,1.30
2023-03-11T19:21:26.117Z,1.42
2023-03-11T19:23:56.923Z,1.97
2023-03-11T19:26:41.476Z,1.58
2023-03-11T19:29:14.153Z,1.45
2023-03-11T19:31:43.878Z,1.70
2023-03-11T19:34:12.843Z,1.87
2023-03-11T19:36:41.923Z,2.47
2023-03-11T19:39:11.479Z,1.83
2023-03-11T19:41:39.868Z,2.17
2023-03-11T19:44:08.105Z,1.65
2023-03-11T19:46:36.516Z,2.05
2023-03-11T19:49:05.155Z,1.67
2023-03-11T19:51:48.609Z,1.90
2023-03-11T19:54:19.502Z,1.90
2023-03-11T19:56:48.288Z,4.37
2023-03-11T19:59:16.436Z,3.40
2023-03-11T20:01:45.409Z,1.52
2023-03-11T20:04:15.481Z,3.53
2023-03-11T20:06:44.163Z,4.53
2023-03-11T20:09:13.541Z,2.87
2023-03-11T20:11:42.777Z,3.37
2023-03-11T20:14:11.869Z,2.60
2023-03-11T20:16:40.185Z,2.62
2023-03-11T20:19:08.565Z,3.17
2023-03-11T20:21:40.775Z,2.70
2023-03-11T20:24:10.562Z,2.30
2023-03-11T20:26:38.994Z,2.70
2023-03-11T20:29:07.440Z,4.53
2023-03-11T20:31:36.697Z,3.55
2023-03-11T20:34:05.379Z,4.12
2023-03-11T20:36:34.026Z,3.00
2023-03-11T20:39:04.800Z,2.75
2023-03-11T20:41:38.157Z,3.83
2023-03-11T20:44:09.097Z,3.58
2023-03-11T20:46:37.414Z,2.72
2023-03-11T20:49:07.084Z,1.98
2023-03-11T20:51:39.034Z,2.17
2023-03-11T20:56:36.476Z,2.97
2023-03-11T20:59:07.094Z,2.65
2023-03-11T21:01:35.866Z,3.75
2023-03-11T21:04:04.884Z,2.33
2023-03-11T21:06:36.086Z,2.95
2023-03-11T21:11:36.468Z,2.95
2023-03-11T21:14:06.719Z,3.25
2023-03-11T21:16:37.255Z,3.12
2023-03-11T21:21:36.965Z,2.67
2023-03-11T21:24:05.996Z,4.03
2023-03-11T21:26:34.117Z,3.58
2023-03-11T21:29:01.924Z,2.83
2023-03-11T21:31:30.800Z,2.17
2023-03-11T21:34:01.380Z,2.80
2023-03-11T21:36:30.261Z,2.55
2023-03-11T21:38:58.511Z,3.45
2023-03-11T21:41:27.435Z,3.50
2023-03-11T21:43:56.870Z,3.62
2023-03-11T21:46:28.512Z,2.55
2023-03-11T21:51:26.068Z,2.47
2023-03-11T21:53:54.326Z,2.83
2023-03-11T21:56:22.537Z,2.78
2023-03-11T21:58:50.710Z,3.45
2023-03-11T22:01:18.805Z,3.15
2023-03-11T22:03:48.220Z,3.08
2023-03-11T22:06:16.390Z,2.37
2023-03-11T22:08:44.297Z,4.20
2023-03-11T22:11:17.984Z,2.22
2023-03-11T22:13:47.905Z,3.25
2023-03-11T22:16:16.656Z,4.20
2023-03-11T22:18:45.358Z,5.22
2023-03-11T22:21:17.186Z,3.65
2023-03-11T22:23:45.584Z,2.67
2023-03-11T22:26:14.424Z,3.65
2023-03-11T22:28:42.518Z,2.42
2023-03-11T22:31:14.116Z,2.22
2023-03-11T22:33:42.006Z,2.67
2023-03-11T22:36:10.418Z,2.60
2023-03-11T22:38:41.773Z,3.22
2023-03-11T22:41:11.179Z,4.50
2023-03-11T22:43:39.531Z,3.60
2023-03-11T22:46:07.649Z,4.35
2023-03-11T22:48:36.206Z,3.28
2023-03-11T22:51:04.979Z,2.92
2023-03-11T22:53:32.792Z,2.70
2023-03-11T22:56:01.037Z,3.10
2023-03-11T22:58:29.127Z,3.60
2023-03-11T23:00:56.970Z,3.78
2023-03-11T23:03:26.540Z,3.95
2023-03-11T23:05:58.770Z,4.30
2023-03-11T23:08:27.233Z,4.62
2023-03-11T23:10:55.256Z,2.42
2023-03-11T23:13:23.133Z,3.28
2023-03-11T23:15:51.439Z,2.62
2023-03-11T23:18:19.794Z,2.87
2023-03-11T23:20:47.711Z,3.10
2023-03-11T23:23:16.717Z,3.05
2023-03-11T23:25:44.676Z,3.40
2023-03-11T23:28:12.671Z,2.60
2023-03-11T23:30:41.546Z,2.95
2023-03-11T23:33:09.529Z,2.92
2023-03-11T23:35:42.067Z,2.33
2023-03-11T23:38:11.137Z,2.70
2023-03-11T23:40:41.631Z,4.18
2023-03-11T23:43:10.056Z,4.15
2023-03-11T23:45:38.498Z,2.62
2023-03-11T23:48:06.831Z,4.50
2023-03-11T23:50:34.923Z,2.90
2023-03-11T23:53:03.094Z,2.00
2023-03-11T23:55:31.156Z,2.75
2023-03-11T23:57:59.103Z,1.77
